Mount Sterling, KY

1:44 AM EDT on September 26, 2016 (GMT -0400)
Mount Sterling-Montgomery County

Weather History for KIOB - February, 2014

Change the Weather History Date:

Wednesday, February 19, 2014

  Actual Average Record
Temperature  
Mean Temperature 48 °F -  
Max Temperature 55 °F 49 °F 64 °F (2016)
Min Temperature 41 °F 28 °F -13 °F (2015)
Degree Days  
Heating Degree Days 17    
Moisture  
Dew Point 40 °F    
Average Humidity 68    
Maximum Humidity 100    
Minimum Humidity 41    
Precipitation  
Precipitation 0.08 in - - ()
Sea Level Pressure  
Sea Level Pressure 29.95 in    
Wind  
Wind Speed 10 mph (WNW)    
Max Wind Speed 21 mph    
Max Gust Speed 29 mph    
Visibility 10 miles    
Events Rain    
Averages and records for this station are not official NWS values.
T = Trace of Precipitation, MM = Missing Value Source: NWS Daily Summary

Daily Weather History Graph

Daily Weather History Graph

Search for Another Location

Airport or City:

Trip Planner

Search our weather history database for the weather conditions in past years. The results will help you decide how hot, cold, wet, or windy it might be!

Date:

Astronomy

Feb. 19, 2014 Rise Set
Actual Time 7:21 AM EST 6:18 PM EST
Civil Twilight 6:54 AM EST 6:45 PM EST
Nautical Twilight 6:23 AM EST 7:16 PM EST
Astronomical Twilight 5:53 AM EST 7:47 PM EST
Moon 11:06 PM EST (2/19) 9:31 AM EST (2/19)
Length of Visible Light 11h 51m
Length of Day
10h 57m
Waning Gibbous, 80% of the Moon is Illuminated
Feb 19
Waning Gibbous
Feb 22
Last Quarter
Mar 1
New
Mar 8
First Quarter
Mar 16
Full

Hourly Weather History & Observations

Time (EST) Temp. Windchill Dew Point Humidity Pressure Visibility Wind Dir Wind Speed Gust Speed Precip Events Conditions
12:55 AM 51.8 °F - 37.4 °F 58% 29.85 in 10.0 mi SW 9.2 mph 16.1 mph N/A   Overcast
1:15 AM 53.6 °F - 37.4 °F 54% 29.83 in 10.0 mi SW 9.2 mph - N/A   Mostly Cloudy
1:35 AM 53.6 °F - 41.0 °F 62% 29.82 in 10.0 mi SW 9.2 mph 17.3 mph N/A   Mostly Cloudy
1:55 AM 53.6 °F - 41.0 °F 62% 29.81 in 10.0 mi SW 13.8 mph 18.4 mph N/A   Scattered Clouds
2:15 AM 53.6 °F - 44.6 °F 72% 29.80 in 10.0 mi WSW 12.7 mph 17.3 mph N/A   Overcast
2:35 AM 53.6 °F - 46.4 °F 77% 29.80 in 10.0 mi WSW 11.5 mph - N/A   Overcast
2:55 AM 53.6 °F - 46.4 °F 77% 29.80 in 10.0 mi WSW 9.2 mph - N/A   Overcast
3:15 AM 51.8 °F - 50.0 °F 94% 29.81 in 5.0 mi West 20.7 mph 27.6 mph 0.06 in Rain Rain
3:35 AM 51.8 °F - 50.0 °F 94% 29.80 in 10.0 mi West 11.5 mph 18.4 mph 0.07 in Rain Light Rain
3:55 AM 51.8 °F - 50.0 °F 94% 29.79 in 10.0 mi WSW 10.4 mph - 0.08 in Rain Light Rain
4:15 AM 51.8 °F - 50.0 °F 94% 29.80 in 10.0 mi West 8.1 mph - N/A   Overcast
4:35 AM 51.8 °F - 50.0 °F 94% 29.80 in 10.0 mi WSW 10.4 mph - N/A   Overcast
4:55 AM 51.8 °F - 50.0 °F 94% 29.80 in 10.0 mi WSW 9.2 mph - N/A   Scattered Clouds
5:15 AM 50.0 °F - 50.0 °F 100% 29.80 in 10.0 mi WSW 9.2 mph - N/A   Clear
5:35 AM 50.0 °F - 50.0 °F 100% 29.80 in 7.0 mi WSW 9.2 mph - N/A   Clear
5:55 AM 50.0 °F - 50.0 °F 100% 29.80 in 7.0 mi WSW 8.1 mph - N/A   Clear
6:15 AM 50.0 °F - 50.0 °F 100% 29.80 in 10.0 mi West 10.4 mph 16.1 mph N/A   Scattered Clouds
6:35 AM 51.8 °F - 51.8 °F 100% 29.80 in 10.0 mi West 12.7 mph 18.4 mph N/A   Scattered Clouds
6:55 AM 51.8 °F - 50.0 °F 94% 29.81 in 10.0 mi West 11.5 mph 20.7 mph N/A   Clear
7:15 AM 51.8 °F - 50.0 °F 94% 29.82 in 10.0 mi West 11.5 mph - N/A   Clear
7:35 AM 50.0 °F - 50.0 °F 100% 29.82 in 7.0 mi West 13.8 mph 21.9 mph N/A   Clear
7:55 AM 51.8 °F - 50.0 °F 94% 29.84 in 7.0 mi West 12.7 mph 18.4 mph N/A   Mostly Cloudy
8:15 AM 51.8 °F - 50.0 °F 94% 29.84 in 7.0 mi West 11.5 mph 18.4 mph N/A   Mostly Cloudy
8:35 AM 51.8 °F - 50.0 °F 94% 29.86 in 7.0 mi West 11.5 mph 18.4 mph N/A   Mostly Cloudy
8:55 AM 51.8 °F - 50.0 °F 94% 29.87 in 7.0 mi West 13.8 mph 21.9 mph N/A   Overcast
9:15 AM 51.8 °F - 48.2 °F 88% 29.89 in 10.0 mi WNW 15.0 mph 21.9 mph N/A   Overcast
9:35 AM 51.8 °F - 46.4 °F 82% 29.91 in 10.0 mi WNW 12.7 mph 23.0 mph N/A   Mostly Cloudy
9:55 AM 53.6 °F - 46.4 °F 77% 29.91 in 10.0 mi West 15.0 mph 26.5 mph N/A   Clear
10:15 AM 53.6 °F - 44.6 °F 72% 29.92 in 10.0 mi West 13.8 mph 24.2 mph N/A   Clear
10:35 AM 53.6 °F - 42.8 °F 67% 29.93 in 10.0 mi WNW 15.0 mph 24.2 mph N/A   Clear
10:55 AM 55.4 °F - 42.8 °F 63% 29.96 in 10.0 mi WNW 16.1 mph 24.2 mph N/A   Clear
11:15 AM 53.6 °F - 41.0 °F 62% 29.97 in 10.0 mi WNW 15.0 mph 25.3 mph N/A   Clear
11:35 AM 53.6 °F - 39.2 °F 58% 29.99 in 10.0 mi WNW 17.3 mph 28.8 mph N/A   Clear
11:55 AM 53.6 °F - 37.4 °F 54% 30.00 in 10.0 mi WNW 15.0 mph 25.3 mph N/A   Clear
12:15 PM 53.6 °F - 37.4 °F 54% 30.00 in 10.0 mi WNW 16.1 mph 26.5 mph N/A   Clear
12:35 PM 53.6 °F - 35.6 °F 51% 30.00 in 10.0 mi NW 17.3 mph 27.6 mph N/A   Clear
12:55 PM 53.6 °F - 35.6 °F 51% 30.00 in 10.0 mi NW 15.0 mph 24.2 mph N/A   Clear
1:15 PM 53.6 °F - 33.8 °F 47% 30.00 in 10.0 mi NW 15.0 mph 24.2 mph N/A   Clear
1:35 PM 53.6 °F - 33.8 °F 47% 30.01 in 10.0 mi NW 12.7 mph 19.6 mph N/A   Clear
1:55 PM 53.6 °F - 32.0 °F 44% 30.01 in 10.0 mi WNW 13.8 mph 19.6 mph N/A   Clear
2:15 PM 55.4 °F - 35.6 °F 47% 30.00 in 10.0 mi West 12.7 mph 17.3 mph N/A   Clear
2:35 PM 55.4 °F - 33.8 °F 44% 30.01 in 10.0 mi WNW 10.4 mph 18.4 mph N/A   Clear
2:55 PM 55.4 °F - 32.0 °F 41% 30.01 in 10.0 mi NW 8.1 mph 18.4 mph N/A   Clear
3:15 PM 55.4 °F - 32.0 °F 41% 30.01 in 10.0 mi NNW 8.1 mph 16.1 mph N/A   Clear
3:35 PM 55.4 °F - 32.0 °F 41% 30.02 in 10.0 mi WNW 6.9 mph - N/A   Clear
3:55 PM 55.4 °F - 33.8 °F 44% 30.03 in 10.0 mi WNW 4.6 mph - N/A   Clear
4:15 PM 55.4 °F - 32.0 °F 41% 30.05 in 10.0 mi NW 10.4 mph - N/A   Clear
4:35 PM 55.4 °F - 32.0 °F 41% 30.06 in 10.0 mi NW 8.1 mph - N/A   Clear
4:55 PM 53.6 °F - 32.0 °F 44% 30.07 in 10.0 mi NW 10.4 mph - N/A   Clear
5:15 PM 53.6 °F - 32.0 °F 44% 30.06 in 10.0 mi NNW 5.8 mph - N/A   Clear
5:35 PM 51.8 °F - 32.0 °F 47% 30.07 in 10.0 mi Calm Calm - N/A   Clear
5:55 PM 51.8 °F - 32.0 °F 47% 30.08 in 10.0 mi Calm Calm - N/A   Clear
6:15 PM 50.0 °F - 32.0 °F 50% 30.08 in 10.0 mi NNW 4.6 mph - N/A   Clear
6:35 PM 50.0 °F - 32.0 °F 50% 30.09 in 10.0 mi NNW 3.5 mph - N/A   Clear
6:55 PM 50.0 °F - 32.0 °F 50% 30.10 in 10.0 mi NW 4.6 mph - N/A   Clear
7:15 PM 48.2 °F - 32.0 °F 54% 30.10 in 10.0 mi North 3.5 mph - N/A   Clear
7:35 PM 44.6 °F 43.1 °F 33.8 °F 66% 30.10 in 10.0 mi NNE 3.5 mph - N/A   Clear
7:55 PM 44.6 °F 43.1 °F 33.8 °F 66% 30.09 in 10.0 mi ENE 3.5 mph - N/A   Clear
8:15 PM 44.6 °F - 32.0 °F 61% 30.09 in 10.0 mi Calm Calm - N/A   Clear
8:35 PM 42.8 °F 40.1 °F 33.8 °F 70% 30.09 in 10.0 mi East 4.6 mph - N/A   Clear
8:55 PM 42.8 °F 39.3 °F 32.0 °F 66% 30.08 in 10.0 mi ESE 5.8 mph - N/A   Clear
9:15 PM 44.6 °F 40.7 °F 32.0 °F 61% 30.07 in 10.0 mi ESE 6.9 mph - N/A   Clear
9:35 PM 41.0 °F 36.4 °F 32.0 °F 70% 30.07 in 10.0 mi East 6.9 mph - N/A   Clear
9:55 PM 44.6 °F 40.2 °F 32.0 °F 61% 30.06 in 10.0 mi ESE 8.1 mph - N/A   Clear
10:15 PM 46.4 °F 43.5 °F 32.0 °F 57% 30.08 in 10.0 mi ESE 5.8 mph - N/A   Clear
10:35 PM 44.6 °F 41.4 °F 32.0 °F 61% 30.07 in 10.0 mi ESE 5.8 mph - N/A   Clear
10:55 PM 44.6 °F 40.2 °F 32.0 °F 61% 30.06 in 10.0 mi SE 8.1 mph - N/A   Clear
11:35 PM 44.6 °F 40.2 °F 32.0 °F 61% 30.05 in 10.0 mi SE 8.1 mph - N/A   Clear
11:55 PM 42.8 °F 38.0 °F 32.0 °F 66% 30.04 in 10.0 mi ESE 8.1 mph - N/A   Clear